createdAt,value
2019-03-29T00:00:43.939Z,64.26
2019-03-29T00:03:11.638Z,64.60
2019-03-29T00:05:38.803Z,64.88
2019-03-29T00:08:05.782Z,64.94
2019-03-29T00:10:32.577Z,65.05
2019-03-29T00:13:02.071Z,65.07
2019-03-29T00:15:28.841Z,65.11
2019-03-29T00:17:55.635Z,65.12
2019-03-29T00:20:23.330Z,65.15
2019-03-29T00:22:50.995Z,65.05
2019-03-29T00:25:19.430Z,65.43
2019-03-29T00:27:47.599Z,65.68
2019-03-29T00:30:17.573Z,65.95
2019-03-29T00:32:47.519Z,65.80
2019-03-29T00:35:14.315Z,65.61
2019-03-29T00:37:52.905Z,66.06
2019-03-29T00:40:10.730Z,66.42
2019-03-29T00:42:37.569Z,65.95
2019-03-29T00:45:07.015Z,66.03
2019-03-29T00:47:33.927Z,66.51
2019-03-29T00:50:00.830Z,66.60
2019-03-29T00:52:27.802Z,66.18
2019-03-29T00:54:54.844Z,66.04
2019-03-29T00:57:22.518Z,66.30
2019-03-29T00:59:51.544Z,66.60
2019-03-29T01:02:19.141Z,66.64
2019-03-29T01:04:46.257Z,66.38
2019-03-29T01:07:13.407Z,66.47
2019-03-29T01:09:40.177Z,66.33
2019-03-29T01:12:07.474Z,66.30
2019-03-29T01:14:34.783Z,66.37
2019-03-29T01:17:04.559Z,66.95
2019-03-29T01:19:34.523Z,67.22
2019-03-29T01:22:01.701Z,67.30
2019-03-29T01:24:29.032Z,67.42
2019-03-29T01:26:56.171Z,67.44
2019-03-29T01:29:23.534Z,67.57
2019-03-29T01:31:51.141Z,67.27
2019-03-29T01:34:18.024Z,66.70
2019-03-29T01:36:47.321Z,67.95
2019-03-29T01:39:15.031Z,67.80
2019-03-29T01:41:42.801Z,67.85
2019-03-29T01:44:10.704Z,67.58
2019-03-29T01:46:38.349Z,67.99
2019-03-29T01:49:05.735Z,68.42
2019-03-29T01:51:32.756Z,68.02
2019-03-29T01:54:00.602Z,68.49
2019-03-29T01:56:27.566Z,69.01
2019-03-29T01:58:54.819Z,68.61
2019-03-29T02:01:21.848Z,68.85
2019-03-29T02:03:49.419Z,68.76
2019-03-29T02:06:19.212Z,68.24
2019-03-29T02:08:46.939Z,68.66
2019-03-29T02:11:14.910Z,68.46
2019-03-29T02:13:42.418Z,68.10
2019-03-29T02:16:10.055Z,68.25
2019-03-29T02:18:37.224Z,69.01
2019-03-29T02:21:04.848Z,68.89
2019-03-29T02:23:31.965Z,68.58
2019-03-29T02:25:59.282Z,68.33
2019-03-29T02:28:26.617Z,68.63
2019-03-29T02:30:54.759Z,68.48
2019-03-29T02:33:21.665Z,68.23
2019-03-29T02:35:49.461Z,68.12
2019-03-29T02:38:54.099Z,68.52
2019-03-29T02:41:07.786Z,67.82
2019-03-29T02:43:34.960Z,68.45
2019-03-29T02:46:01.965Z,68.26
2019-03-29T02:48:28.711Z,68.29
2019-03-29T02:50:55.548Z,67.87
2019-03-29T02:53:22.636Z,68.25
2019-03-29T02:55:49.672Z,68.74
2019-03-29T02:58:17.580Z,69.21
2019-03-29T03:00:45.119Z,68.82
2019-03-29T03:03:12.161Z,68.93
2019-03-29T03:05:39.278Z,68.89
2019-03-29T03:08:06.040Z,68.54
2019-03-29T03:10:32.835Z,68.63
2019-03-29T03:12:59.745Z,69.28
2019-03-29T03:15:27.225Z,69.74
2019-03-29T03:17:54.429Z,69.58
2019-03-29T03:20:21.379Z,69.22
2019-03-29T03:22:48.333Z,69.18
2019-03-29T03:25:15.400Z,68.75
2019-03-29T03:27:42.677Z,68.40
2019-03-29T03:30:12.128Z,68.86
2019-03-29T03:32:39.330Z,69.17
2019-03-29T03:35:08.021Z,69.26
2019-03-29T03:37:35.658Z,69.03
2019-03-29T03:40:06.617Z,69.17
2019-03-29T03:42:33.477Z,69.64
2019-03-29T03:45:00.613Z,69.96
2019-03-29T03:47:27.795Z,69.83
2019-03-29T03:49:55.171Z,70.31
2019-03-29T03:52:23.216Z,70.26
2019-03-29T03:54:50.570Z,70.29
2019-03-29T03:57:18.233Z,70.18
2019-03-29T03:59:46.161Z,69.93
2019-03-29T04:02:12.922Z,70.14
2019-03-29T04:04:39.798Z,70.23
2019-03-29T04:07:07.054Z,70.04
2019-03-29T04:09:48.475Z,69.96
2019-03-29T04:12:03.097Z,70.25
2019-03-29T04:14:30.389Z,69.96
2019-03-29T04:16:57.200Z,70.18
2019-03-29T04:19:24.468Z,70.12
2019-03-29T04:21:51.332Z,69.89
2019-03-29T04:24:18.651Z,69.91
2019-03-29T04:26:45.731Z,69.73
2019-03-29T04:29:12.639Z,69.95
2019-03-29T04:31:39.416Z,70.37
2019-03-29T04:34:06.510Z,70.65
2019-03-29T04:36:33.510Z,70.34
2019-03-29T04:39:00.683Z,69.99
2019-03-29T04:41:27.899Z,70.28
2019-03-29T04:43:55.113Z,70.46
2019-03-29T04:46:22.159Z,70.26
2019-03-29T04:48:49.200Z,70.80
2019-03-29T04:51:16.103Z,70.33
2019-03-29T04:53:43.044Z,70.21
2019-03-29T04:56:10.500Z,70.67
2019-03-29T04:58:37.598Z,71.01
2019-03-29T05:01:04.526Z,71.38
2019-03-29T05:03:31.418Z,70.92
2019-03-29T05:05:58.435Z,70.94
2019-03-29T05:08:25.384Z,70.87
2019-03-29T05:10:52.486Z,71.26
2019-03-29T05:13:21.378Z,71.06
2019-03-29T05:15:48.284Z,71.11
2019-03-29T05:18:15.433Z,70.81
2019-03-29T05:20:42.583Z,70.95
2019-03-29T05:23:09.943Z,70.73
2019-03-29T05:25:36.875Z,70.63
2019-03-29T05:28:03.790Z,70.54
2019-03-29T05:30:31.422Z,70.64
2019-03-29T05:32:58.541Z,70.57
2019-03-29T05:35:25.635Z,70.70
2019-03-29T05:37:52.434Z,71.16
2019-03-29T05:40:19.550Z,71.45
2019-03-29T05:42:46.697Z,71.29
2019-03-29T05:45:13.566Z,71.21
2019-03-29T05:47:41.209Z,71.18
2019-03-29T05:50:08.888Z,71.20
2019-03-29T05:52:36.217Z,71.61
2019-03-29T05:55:05.005Z,71.95
2019-03-29T05:57:32.178Z,72.58
2019-03-29T05:59:59.413Z,72.64
2019-03-29T06:02:26.258Z,72.04
2019-03-29T06:04:53.053Z,72.02
2019-03-29T06:07:20.461Z,72.01
2019-03-29T06:09:48.449Z,71.56
2019-03-29T06:12:15.585Z,71.48
2019-03-29T06:14:43.625Z,71.21
2019-03-29T06:17:10.766Z,70.91
2019-03-29T06:19:37.747Z,71.36
2019-03-29T06:22:04.670Z,71.61
2019-03-29T06:24:31.457Z,71.37
2019-03-29T06:26:58.334Z,71.50
2019-03-29T06:29:25.961Z,71.25
2019-03-29T06:31:52.917Z,71.01
2019-03-29T06:34:19.943Z,70.98
2019-03-29T06:36:50.453Z,70.97
2019-03-29T06:39:21.367Z,71.08
2019-03-29T06:41:48.464Z,71.06
2019-03-29T06:44:15.402Z,70.91
2019-03-29T06:46:42.806Z,70.64
2019-03-29T06:49:09.767Z,70.79
2019-03-29T06:51:38.599Z,70.96
2019-03-29T06:54:06.824Z,70.66
2019-03-29T06:56:34.230Z,70.53
2019-03-29T06:59:01.385Z,70.64
2019-03-29T07:01:28.520Z,70.33
2019-03-29T07:03:55.644Z,70.35
2019-03-29T07:06:22.844Z,69.99
2019-03-29T07:08:49.929Z,69.47
2019-03-29T07:11:18.200Z,69.15
2019-03-29T07:13:57.278Z,68.99
2019-03-29T07:16:16.675Z,69.00
2019-03-29T07:18:43.547Z,68.96
2019-03-29T07:21:20.871Z,68.79
2019-03-29T07:23:39.433Z,68.78
2019-03-29T07:26:06.651Z,68.64
2019-03-29T07:28:44.710Z,68.46
2019-03-29T07:31:12.838Z,68.28
2019-03-29T07:33:41.270Z,68.37
2019-03-29T07:36:09.242Z,67.96
2019-03-29T07:38:37.638Z,67.66
2019-03-29T07:41:07.530Z,67.21
2019-03-29T07:43:34.550Z,66.79
2019-03-29T07:46:01.477Z,66.59
2019-03-29T07:48:28.910Z,66.39
2019-03-29T07:50:55.722Z,66.03
2019-03-29T07:53:23.329Z,65.56
2019-03-29T07:55:50.451Z,64.89
2019-03-29T07:58:17.732Z,64.21
2019-03-29T08:00:44.716Z,63.59
2019-03-29T08:03:11.792Z,63.17
2019-03-29T08:05:38.809Z,62.83
2019-03-29T08:08:06.396Z,62.28
2019-03-29T08:10:33.508Z,61.76
2019-03-29T08:13:00.534Z,61.17
2019-03-29T08:15:27.756Z,60.73
2019-03-29T08:17:54.938Z,60.13
2019-03-29T08:20:40.287Z,59.66
2019-03-29T08:22:51.110Z,59.04
2019-03-29T08:25:18.253Z,58.77
2019-03-29T08:27:45.220Z,58.62
2019-03-29T08:30:14.287Z,58.74
2019-03-29T08:32:41.147Z,58.32
2019-03-29T08:35:08.222Z,57.63
2019-03-29T08:37:35.258Z,57.00
2019-03-29T08:40:04.058Z,56.51
2019-03-29T08:42:30.995Z,56.09
2019-03-29T08:44:57.840Z,55.76
2019-03-29T08:47:25.156Z,55.02
2019-03-29T08:49:52.084Z,54.49
2019-03-29T08:52:19.831Z,53.98
2019-03-29T08:54:47.664Z,53.82
2019-03-29T08:57:15.932Z,53.35
2019-03-29T08:59:43.212Z,52.81
2019-03-29T09:02:10.221Z,51.93
2019-03-29T09:04:37.016Z,51.78
2019-03-29T09:07:04.396Z,51.02
2019-03-29T09:09:31.371Z,50.54
2019-03-29T09:11:58.609Z,49.87
2019-03-29T09:14:31.037Z,49.54
2019-03-29T09:16:56.738Z,49.04
2019-03-29T09:19:23.655Z,49.13
2019-03-29T09:21:50.442Z,48.99
2019-03-29T09:24:22.266Z,48.55
2019-03-29T09:26:45.965Z,48.53
2019-03-29T09:29:13.518Z,48.38
2019-03-29T09:31:40.267Z,47.87
2019-03-29T09:34:14.404Z,46.41
2019-03-29T09:36:44.706Z,47.46
2019-03-29T09:39:15.372Z,47.11
2019-03-29T09:41:42.749Z,46.60
2019-03-29T09:44:09.720Z,45.96
2019-03-29T09:46:36.524Z,45.01
2019-03-29T09:49:03.505Z,44.69
2019-03-29T09:51:30.973Z,44.66
2019-03-29T09:53:58.177Z,44.89
2019-03-29T09:56:37.892Z,44.27
2019-03-29T09:58:54.588Z,43.51
2019-03-29T10:01:22.038Z,43.93
2019-03-29T10:03:48.939Z,44.78
2019-03-29T10:06:16.618Z,44.40
2019-03-29T10:08:44.069Z,43.92
2019-03-29T10:11:10.795Z,44.25
2019-03-29T10:13:40.643Z,44.06
2019-03-29T10:16:07.772Z,43.27
2019-03-29T10:18:34.666Z,42.82
2019-03-29T10:21:01.550Z,43.63
2019-03-29T10:23:28.342Z,44.13
2019-03-29T10:25:58.483Z,43.81
2019-03-29T10:28:24.278Z,42.99
2019-03-29T10:30:51.137Z,42.28
2019-03-29T10:33:17.947Z,42.71
2019-03-29T10:35:52.262Z,43.01
2019-03-29T10:38:18.051Z,43.57
2019-03-29T10:40:43.399Z,43.65
2019-03-29T10:43:10.282Z,42.94
2019-03-29T10:45:40.291Z,41.13
2019-03-29T10:48:06.688Z,39.84
2019-03-29T10:50:33.504Z,40.05
2019-03-29T10:53:02.483Z,40.51
2019-03-29T10:55:29.642Z,39.94
2019-03-29T10:57:56.927Z,39.78
2019-03-29T11:00:37.643Z,39.29
2019-03-29T11:03:05.479Z,37.57
2019-03-29T11:05:32.611Z,37.27
2019-03-29T11:08:00.264Z,36.63
2019-03-29T11:10:38.953Z,37.79
2019-03-29T11:13:13.086Z,38.28
2019-03-29T11:15:35.588Z,37.45
2019-03-29T11:18:04.424Z,36.34
2019-03-29T11:20:31.992Z,34.90
2019-03-29T11:22:59.074Z,34.57
2019-03-29T11:25:26.082Z,35.79
2019-03-29T11:27:52.981Z,36.76
2019-03-29T11:30:19.872Z,37.02
2019-03-29T11:32:47.277Z,36.89
2019-03-29T11:35:14.250Z,37.07
2019-03-29T11:37:43.018Z,37.80
2019-03-29T11:40:10.715Z,37.48
2019-03-29T11:42:38.179Z,36.44
2019-03-29T11:45:05.792Z,36.86
2019-03-29T11:47:32.635Z,34.39
2019-03-29T11:49:59.431Z,31.72
2019-03-29T11:52:26.379Z,31.59
2019-03-29T11:54:55.240Z,31.92
2019-03-29T11:57:22.238Z,32.19
2019-03-29T11:59:49.011Z,30.94
2019-03-29T12:02:30.158Z,29.57
2019-03-29T12:04:45.365Z,28.91
2019-03-29T12:07:12.215Z,31.24
2019-03-29T12:09:39.201Z,31.16
2019-03-29T12:12:06.671Z,31.16
2019-03-29T12:14:33.468Z,29.05
2019-03-29T12:17:00.212Z,28.08
2019-03-29T12:19:27.248Z,28.79
2019-03-29T12:21:54.299Z,28.58
2019-03-29T12:24:21.190Z,28.00
2019-03-29T12:26:48.469Z,27.48
2019-03-29T12:29:15.339Z,26.99
2019-03-29T12:31:42.351Z,26.82
2019-03-29T12:34:09.163Z,26.01
2019-03-29T12:36:36.598Z,25.59
2019-03-29T12:39:06.578Z,25.42
2019-03-29T12:41:34.105Z,25.14
2019-03-29T12:44:01.173Z,25.12
2019-03-29T12:46:28.049Z,25.02
2019-03-29T12:48:55.475Z,25.31
2019-03-29T12:51:22.330Z,24.70
2019-03-29T12:53:49.619Z,25.13
2019-03-29T12:56:17.049Z,25.12
2019-03-29T12:58:43.831Z,24.95
2019-03-29T13:01:10.887Z,24.72
2019-03-29T13:03:37.647Z,24.32
2019-03-29T13:06:04.594Z,24.08
2019-03-29T13:08:34.378Z,23.77
2019-03-29T13:11:01.553Z,23.82
2019-03-29T13:13:28.701Z,23.48
2019-03-29T13:15:55.779Z,23.65
2019-03-29T13:18:26.235Z,23.35
2019-03-29T13:20:54.178Z,23.51
2019-03-29T13:23:21.968Z,23.46
2019-03-29T13:25:49.196Z,23.18
2019-03-29T13:28:15.970Z,23.29
2019-03-29T13:30:43.136Z,23.30
2019-03-29T13:33:10.556Z,23.12
2019-03-29T13:35:37.404Z,22.84
2019-03-29T13:38:04.253Z,22.96
2019-03-29T13:40:31.186Z,23.26
2019-03-29T13:42:58.078Z,23.26
2019-03-29T13:45:27.837Z,23.22
2019-03-29T13:47:54.705Z,23.19
2019-03-29T13:50:22.026Z,23.21
2019-03-29T13:52:49.284Z,23.11
2019-03-29T13:55:16.234Z,22.54
2019-03-29T13:57:43.395Z,23.16
2019-03-29T14:00:12.121Z,23.41
2019-03-29T14:02:39.040Z,23.46
2019-03-29T14:05:07.548Z,23.19
2019-03-29T14:07:34.636Z,22.80
2019-03-29T14:10:03.054Z,22.73
2019-03-29T14:12:29.902Z,22.18
2019-03-29T14:15:01.080Z,22.37
2019-03-29T14:17:26.488Z,22.84
2019-03-29T14:19:54.418Z,23.32
2019-03-29T14:22:22.020Z,22.85
2019-03-29T14:24:48.807Z,22.54
2019-03-29T14:27:16.417Z,22.46
2019-03-29T14:29:43.270Z,22.78
2019-03-29T14:32:10.120Z,22.54
2019-03-29T14:34:37.269Z,22.34
2019-03-29T14:37:04.587Z,22.13
2019-03-29T14:39:31.759Z,22.30
2019-03-29T14:41:58.586Z,22.48
2019-03-29T14:44:25.338Z,22.48
2019-03-29T14:46:52.155Z,22.25
2019-03-29T14:49:19.159Z,22.54
2019-03-29T14:51:45.919Z,23.21
2019-03-29T14:54:12.876Z,23.73
2019-03-29T14:56:39.942Z,24.06
2019-03-29T14:59:06.927Z,24.51
2019-03-29T15:01:37.098Z,25.40
2019-03-29T15:04:04.113Z,25.79
2019-03-29T15:06:31.008Z,26.46
2019-03-29T15:08:58.493Z,26.62
2019-03-29T15:11:26.636Z,26.79
2019-03-29T15:13:53.548Z,27.09
2019-03-29T15:16:20.451Z,27.27
2019-03-29T15:18:47.521Z,27.65
2019-03-29T15:21:14.296Z,27.79
2019-03-29T15:23:41.144Z,27.67
2019-03-29T15:26:08.254Z,27.63
2019-03-29T15:28:37.430Z,27.61
2019-03-29T15:31:03.844Z,27.68
2019-03-29T15:33:30.781Z,27.69
2019-03-29T15:35:57.546Z,27.62
2019-03-29T15:38:24.697Z,27.70
2019-03-29T15:40:51.447Z,27.90
2019-03-29T15:43:18.191Z,28.12
2019-03-29T15:45:44.937Z,28.18
2019-03-29T15:48:11.995Z,28.15
2019-03-29T15:50:39.507Z,28.46
2019-03-29T15:53:06.627Z,28.55
2019-03-29T15:55:33.874Z,28.36
2019-03-29T15:58:01.066Z,28.38
2019-03-29T16:00:27.905Z,28.62
2019-03-29T16:02:55.117Z,28.79
2019-03-29T16:05:22.079Z,28.85
2019-03-29T16:07:48.968Z,28.95
2019-03-29T16:10:16.399Z,29.11
2019-03-29T16:12:43.270Z,29.21
2019-03-29T16:15:10.459Z,29.29
2019-03-29T16:17:37.620Z,29.28
2019-03-29T16:20:05.065Z,29.21
2019-03-29T16:22:32.048Z,29.16
2019-03-29T16:24:58.817Z,29.22
2019-03-29T16:27:25.587Z,29.28
2019-03-29T16:29:52.531Z,29.31
2019-03-29T16:32:19.728Z,29.52
2019-03-29T16:34:46.707Z,29.71
2019-03-29T16:37:13.703Z,29.85
2019-03-29T16:39:40.786Z,29.97
2019-03-29T16:42:07.609Z,30.18
2019-03-29T16:44:35.598Z,30.29
2019-03-29T16:47:03.168Z,30.36
2019-03-29T16:49:30.025Z,30.51
2019-03-29T16:51:57.748Z,30.53
2019-03-29T16:54:24.844Z,30.67
2019-03-29T16:56:51.628Z,30.82
2019-03-29T16:59:18.391Z,30.93
2019-03-29T17:01:45.232Z,31.19
2019-03-29T17:04:12.087Z,31.32
2019-03-29T17:06:39.260Z,31.40
2019-03-29T17:09:06.963Z,31.52
2019-03-29T17:11:37.803Z,31.56
2019-03-29T17:14:04.857Z,31.71
2019-03-29T17:16:32.118Z,32.08
2019-03-29T17:18:59.326Z,32.41
2019-03-29T17:21:26.110Z,32.57
2019-03-29T17:23:53.110Z,32.67
2019-03-29T17:26:20.389Z,32.69
2019-03-29T17:28:47.337Z,32.64
2019-03-29T17:31:16.127Z,32.76
2019-03-29T17:33:43.237Z,33.09
2019-03-29T17:36:10.207Z,33.49
2019-03-29T17:38:37.197Z,33.79
2019-03-29T17:41:04.396Z,34.17
2019-03-29T17:43:31.643Z,34.57
2019-03-29T17:45:58.521Z,34.99
2019-03-29T17:48:25.777Z,35.19
2019-03-29T17:50:52.722Z,36.26
2019-03-29T17:53:19.913Z,36.98
2019-03-29T17:55:46.669Z,37.28
2019-03-29T17:58:13.896Z,37.18
2019-03-29T18:00:40.641Z,37.25
2019-03-29T18:03:08.409Z,37.47
2019-03-29T18:05:36.028Z,37.62
2019-03-29T18:08:03.308Z,37.92
2019-03-29T18:10:33.030Z,38.11
2019-03-29T18:13:00.773Z,38.69
2019-03-29T18:15:28.087Z,39.41
2019-03-29T18:17:54.916Z,40.07
2019-03-29T18:20:21.895Z,40.07
2019-03-29T18:22:49.451Z,40.15
2019-03-29T18:25:16.925Z,40.59
2019-03-29T18:27:43.675Z,40.59
2019-03-29T18:30:13.529Z,40.66
2019-03-29T18:32:40.555Z,40.63
2019-03-29T18:35:09.509Z,41.17
2019-03-29T18:37:36.656Z,41.35
2019-03-29T18:40:10.064Z,41.68
2019-03-29T18:42:36.663Z,41.79
2019-03-29T18:45:06.101Z,43.69
2019-03-29T18:47:35.965Z,42.14
2019-03-29T18:50:05.285Z,42.80
2019-03-29T18:52:32.188Z,43.37
2019-03-29T18:54:59.336Z,44.12
2019-03-29T18:57:26.422Z,44.05
2019-03-29T18:59:54.692Z,43.69
2019-03-29T19:02:21.786Z,43.84
2019-03-29T19:04:48.633Z,44.13
2019-03-29T19:07:21.167Z,44.82
2019-03-29T19:09:48.427Z,45.61
2019-03-29T19:12:15.183Z,45.73
2019-03-29T19:14:42.511Z,45.84
2019-03-29T19:17:09.876Z,45.74
2019-03-29T19:19:37.484Z,45.95
2019-03-29T19:22:04.359Z,46.60
2019-03-29T19:24:31.210Z,47.60
2019-03-29T19:26:58.389Z,48.16
2019-03-29T19:29:25.269Z,48.57
2019-03-29T19:31:55.407Z,49.35
2019-03-29T19:34:23.929Z,48.67
2019-03-29T19:36:51.578Z,48.46
2019-03-29T19:39:18.421Z,48.68
2019-03-29T19:41:45.450Z,48.93
2019-03-29T19:44:13.790Z,49.66
2019-03-29T19:46:41.132Z,49.82
2019-03-29T19:49:08.242Z,49.32
2019-03-29T19:51:35.598Z,49.00
2019-03-29T19:54:07.589Z,49.16
2019-03-29T19:56:31.493Z,49.13
2019-03-29T19:58:58.264Z,49.24
2019-03-29T20:01:25.454Z,49.76
2019-03-29T20:03:52.410Z,49.68
2019-03-29T20:06:19.756Z,50.11
2019-03-29T20:08:46.539Z,49.78
2019-03-29T20:11:13.682Z,50.01
2019-03-29T20:13:40.932Z,50.54
2019-03-29T20:16:17.020Z,50.44
2019-03-29T20:18:46.147Z,50.92
2019-03-29T20:21:13.037Z,51.18
2019-03-29T20:23:40.665Z,51.46
2019-03-29T20:26:08.897Z,52.96
2019-03-29T20:28:37.910Z,53.24
2019-03-29T20:31:05.801Z,52.85
2019-03-29T20:33:33.260Z,53.21
2019-03-29T20:36:00.143Z,52.89
2019-03-29T20:38:27.473Z,52.31
2019-03-29T20:40:55.426Z,51.89
2019-03-29T20:43:26.059Z,51.52
2019-03-29T20:45:58.334Z,51.83
2019-03-29T20:48:26.630Z,52.46
2019-03-29T20:50:53.508Z,52.89
2019-03-29T20:53:38.384Z,52.81
2019-03-29T20:56:30.278Z,52.23
2019-03-29T20:59:11.502Z,52.30
2019-03-29T21:01:38.836Z,52.67
2019-03-29T21:04:05.628Z,52.67
2019-03-29T21:06:32.402Z,52.93
2019-03-29T21:08:59.821Z,53.08
2019-03-29T21:11:27.168Z,53.13
2019-03-29T21:13:53.999Z,54.75
2019-03-29T21:16:20.818Z,55.64
2019-03-29T21:18:47.587Z,55.92
2019-03-29T21:21:15.495Z,55.33
2019-03-29T21:23:47.264Z,55.22
2019-03-29T21:26:14.325Z,55.50
2019-03-29T21:28:41.287Z,56.50
2019-03-29T21:31:08.730Z,56.10
2019-03-29T21:33:35.975Z,56.05
2019-03-29T21:36:03.110Z,55.51
2019-03-29T21:38:31.162Z,55.11
2019-03-29T21:41:00.092Z,55.26
2019-03-29T21:43:27.209Z,55.19
2019-03-29T21:45:54.293Z,54.73
2019-03-29T21:48:28.577Z,55.02
2019-03-29T21:50:50.991Z,55.72
2019-03-29T21:53:20.646Z,55.69
2019-03-29T21:55:47.490Z,55.50
2019-03-29T21:58:14.341Z,55.49
2019-03-29T22:00:41.909Z,55.41
2019-03-29T22:03:08.906Z,56.44
2019-03-29T22:05:35.746Z,57.17
2019-03-29T22:08:02.658Z,56.87
2019-03-29T22:10:30.813Z,56.57
2019-03-29T22:12:57.684Z,55.92
2019-03-29T22:15:24.506Z,55.93
2019-03-29T22:17:51.399Z,56.48
2019-03-29T22:20:18.271Z,57.14
2019-03-29T22:22:45.630Z,58.37
2019-03-29T22:25:13.583Z,58.04
2019-03-29T22:27:40.495Z,57.78
2019-03-29T22:30:09.728Z,56.99
2019-03-29T22:32:37.849Z,56.39
2019-03-29T22:35:06.927Z,56.57
2019-03-29T22:37:33.900Z,57.30
2019-03-29T22:40:00.847Z,57.15
2019-03-29T22:42:27.759Z,57.26
2019-03-29T22:44:54.695Z,57.39
2019-03-29T22:47:21.525Z,57.11
2019-03-29T22:49:48.804Z,57.25
2019-03-29T22:52:18.423Z,57.39
2019-03-29T22:54:45.276Z,57.41
2019-03-29T22:57:14.302Z,57.70
2019-03-29T22:59:42.228Z,57.80
2019-03-29T23:02:09.526Z,58.17
2019-03-29T23:04:36.653Z,58.07
2019-03-29T23:07:03.946Z,58.37
2019-03-29T23:09:31.001Z,58.98
2019-03-29T23:11:58.267Z,59.23
2019-03-29T23:14:25.233Z,59.06
2019-03-29T23:16:52.251Z,58.74
2019-03-29T23:19:19.089Z,58.87
2019-03-29T23:21:45.830Z,58.27
2019-03-29T23:24:12.635Z,58.42
2019-03-29T23:26:42.337Z,58.87
2019-03-29T23:29:09.182Z,59.30
2019-03-29T23:31:36.261Z,59.38
2019-03-29T23:34:03.578Z,59.37
2019-03-29T23:36:30.894Z,58.57
2019-03-29T23:38:57.838Z,58.94
2019-03-29T23:41:24.573Z,59.00
2019-03-29T23:43:51.983Z,59.29
2019-03-29T23:46:19.200Z,59.17
2019-03-29T23:48:46.379Z,58.85
2019-03-29T23:51:13.172Z,58.93
2019-03-29T23:53:40.119Z,58.77
2019-03-29T23:56:07.001Z,59.06
2019-03-29T23:58:34.696Z,59.84
